sensor_id;sensor_type;location;lat;lon;timestamp;P1;durP1;ratioP1;P2;durP2;ratioP2
35667;SDS011;22158;59.280;17.806;2022-09-03T00:01:38;1.95;;;1.13;;
35667;SDS011;22158;59.280;17.806;2022-09-03T00:04:11;3.65;;;0.95;;
35667;SDS011;22158;59.280;17.806;2022-09-03T00:06:50;1.08;;;0.80;;
35667;SDS011;22158;59.280;17.806;2022-09-03T00:09:24;1.52;;;1.13;;
35667;SDS011;22158;59.280;17.806;2022-09-03T00:14:52;1.75;;;0.98;;
35667;SDS011;22158;59.280;17.806;2022-09-03T00:17:26;1.50;;;0.90;;
35667;SDS011;22158;59.280;17.806;2022-09-03T00:20:05;3.88;;;1.10;;
35667;SDS011;22158;59.280;17.806;2022-09-03T00:22:39;1.77;;;1.13;;
35667;SDS011;22158;59.280;17.806;2022-09-03T00:25:09;2.35;;;1.00;;
35667;SDS011;22158;59.280;17.806;2022-09-03T00:27:39;1.38;;;0.95;;
35667;SDS011;22158;59.280;17.806;2022-09-03T00:30:09;1.45;;;1.20;;
35667;SDS011;22158;59.280;17.806;2022-09-03T00:32:47;2.45;;;1.10;;
35667;SDS011;22158;59.280;17.806;2022-09-03T00:35:31;1.10;;;1.00;;
35667;SDS011;22158;59.280;17.806;2022-09-03T00:38:01;2.95;;;1.20;;
35667;SDS011;22158;59.280;17.806;2022-09-03T00:43:18;2.70;;;1.65;;
35667;SDS011;22158;59.280;17.806;2022-09-03T00:46:00;1.33;;;1.00;;
35667;SDS011;22158;59.280;17.806;2022-09-03T00:48:42;1.75;;;0.85;;
35667;SDS011;22158;59.280;17.806;2022-09-03T00:51:34;0.77;;;0.57;;
35667;SDS011;22158;59.280;17.806;2022-09-03T00:54:28;1.90;;;0.98;;
35667;SDS011;22158;59.280;17.806;2022-09-03T01:02:30;1.55;;;1.00;;
35667;SDS011;22158;59.280;17.806;2022-09-03T01:10:50;1.52;;;1.00;;
35667;SDS011;22158;59.280;17.806;2022-09-03T01:14:03;1.38;;;0.93;;
35667;SDS011;22158;59.280;17.806;2022-09-03T01:27:45;2.15;;;0.80;;
35667;SDS011;22158;59.280;17.806;2022-09-03T01:30:37;1.70;;;0.88;;
35667;SDS011;22158;59.280;17.806;2022-09-03T01:38:49;1.35;;;0.90;;
35667;SDS011;22158;59.280;17.806;2022-09-03T01:41:26;2.15;;;1.00;;
35667;SDS011;22158;59.280;17.806;2022-09-03T01:49:59;1.13;;;0.75;;
35667;SDS011;22158;59.280;17.806;2022-09-03T01:55:39;1.65;;;0.90;;
35667;SDS011;22158;59.280;17.806;2022-09-03T01:58:29;2.13;;;0.90;;
35667;SDS011;22158;59.280;17.806;2022-09-03T02:01:09;2.20;;;0.70;;
35667;SDS011;22158;59.280;17.806;2022-09-03T02:03:43;1.35;;;0.90;;
35667;SDS011;22158;59.280;17.806;2022-09-03T02:06:11;2.38;;;0.90;;
35667;SDS011;22158;59.280;17.806;2022-09-03T02:08:37;1.13;;;0.85;;
35667;SDS011;22158;59.280;17.806;2022-09-03T02:11:04;0.95;;;0.70;;
35667;SDS011;22158;59.280;17.806;2022-09-03T02:16:30;1.50;;;1.00;;
35667;SDS011;22158;59.280;17.806;2022-09-03T02:19:03;0.77;;;0.77;;
35667;SDS011;22158;59.280;17.806;2022-09-03T02:21:36;1.35;;;0.90;;
35667;SDS011;22158;59.280;17.806;2022-09-03T02:24:08;1.02;;;0.75;;
35667;SDS011;22158;59.280;17.806;2022-09-03T02:26:34;1.13;;;0.80;;
35667;SDS011;22158;59.280;17.806;2022-09-03T02:29:00;0.77;;;0.60;;
35667;SDS011;22158;59.280;17.806;2022-09-03T02:31:27;3.75;;;1.17;;
35667;SDS011;22158;59.280;17.806;2022-09-03T02:33:53;2.17;;;0.80;;
35667;SDS011;22158;59.280;17.806;2022-09-03T02:36:24;1.13;;;0.85;;
35667;SDS011;22158;59.280;17.806;2022-09-03T02:38:58;1.30;;;0.80;;
35667;SDS011;22158;59.280;17.806;2022-09-03T02:41:24;3.75;;;0.90;;
35667;SDS011;22158;59.280;17.806;2022-09-03T02:46:33;1.70;;;0.82;;
35667;SDS011;22158;59.280;17.806;2022-09-03T02:49:03;1.10;;;0.80;;
35667;SDS011;22158;59.280;17.806;2022-09-03T02:51:37;1.33;;;0.88;;
35667;SDS011;22158;59.280;17.806;2022-09-03T02:54:04;1.20;;;0.80;;
35667;SDS011;22158;59.280;17.806;2022-09-03T02:56:30;1.20;;;0.90;;
35667;SDS011;22158;59.280;17.806;2022-09-03T02:58:56;1.17;;;0.70;;
35667;SDS011;22158;59.280;17.806;2022-09-03T03:01:22;2.33;;;0.82;;
35667;SDS011;22158;59.280;17.806;2022-09-03T03:03:48;1.75;;;0.98;;
35667;SDS011;22158;59.280;17.806;2022-09-03T03:06:14;0.82;;;0.55;;
35667;SDS011;22158;59.280;17.806;2022-09-03T03:08:40;0.98;;;0.73;;
35667;SDS011;22158;59.280;17.806;2022-09-03T03:11:07;0.93;;;0.70;;
35667;SDS011;22158;59.280;17.806;2022-09-03T03:13:32;1.17;;;0.60;;
35667;SDS011;22158;59.280;17.806;2022-09-03T03:15:59;2.13;;;1.00;;
35667;SDS011;22158;59.280;17.806;2022-09-03T03:18:26;4.82;;;1.73;;
35667;SDS011;22158;59.280;17.806;2022-09-03T03:20:53;1.73;;;0.80;;
35667;SDS011;22158;59.280;17.806;2022-09-03T03:23:19;0.80;;;0.60;;
35667;SDS011;22158;59.280;17.806;2022-09-03T03:25:46;1.92;;;0.70;;
35667;SDS011;22158;59.280;17.806;2022-09-03T03:28:11;0.70;;;0.70;;
35667;SDS011;22158;59.280;17.806;2022-09-03T03:30:38;1.08;;;0.73;;
35667;SDS011;22158;59.280;17.806;2022-09-03T03:33:06;1.08;;;0.70;;
35667;SDS011;22158;59.280;17.806;2022-09-03T03:35:35;0.90;;;0.70;;
35667;SDS011;22158;59.280;17.806;2022-09-03T03:38:01;1.33;;;0.85;;
35667;SDS011;22158;59.280;17.806;2022-09-03T03:40:27;2.22;;;1.08;;
35667;SDS011;22158;59.280;17.806;2022-09-03T03:42:53;2.80;;;0.82;;
35667;SDS011;22158;59.280;17.806;2022-09-03T03:45:19;1.25;;;1.00;;
35667;SDS011;22158;59.280;17.806;2022-09-03T03:47:44;0.95;;;0.75;;
35667;SDS011;22158;59.280;17.806;2022-09-03T03:50:10;1.08;;;0.60;;
35667;SDS011;22158;59.280;17.806;2022-09-03T03:52:36;2.00;;;0.98;;
35667;SDS011;22158;59.280;17.806;2022-09-03T03:55:01;1.90;;;0.73;;
35667;SDS011;22158;59.280;17.806;2022-09-03T03:57:28;0.60;;;0.60;;
35667;SDS011;22158;59.280;17.806;2022-09-03T03:59:55;1.00;;;0.80;;
35667;SDS011;22158;59.280;17.806;2022-09-03T04:02:20;1.10;;;0.82;;
35667;SDS011;22158;59.280;17.806;2022-09-03T04:04:46;3.83;;;0.70;;
35667;SDS011;22158;59.280;17.806;2022-09-03T04:07:12;0.90;;;0.68;;
35667;SDS011;22158;59.280;17.806;2022-09-03T04:09:37;1.00;;;0.90;;
35667;SDS011;22158;59.280;17.806;2022-09-03T04:12:03;1.27;;;0.98;;
35667;SDS011;22158;59.280;17.806;2022-09-03T04:14:32;1.38;;;0.95;;
35667;SDS011;22158;59.280;17.806;2022-09-03T04:16:59;1.13;;;0.90;;
35667;SDS011;22158;59.280;17.806;2022-09-03T04:19:26;1.25;;;0.90;;
35667;SDS011;22158;59.280;17.806;2022-09-03T04:21:54;4.30;;;1.00;;
35667;SDS011;22158;59.280;17.806;2022-09-03T04:24:20;2.40;;;1.27;;
35667;SDS011;22158;59.280;17.806;2022-09-03T04:26:46;1.00;;;0.80;;
35667;SDS011;22158;59.280;17.806;2022-09-03T04:29:11;3.08;;;0.70;;
35667;SDS011;22158;59.280;17.806;2022-09-03T04:31:37;0.90;;;0.73;;
35667;SDS011;22158;59.280;17.806;2022-09-03T04:34:03;1.23;;;1.13;;
35667;SDS011;22158;59.280;17.806;2022-09-03T04:36:32;0.88;;;0.75;;
35667;SDS011;22158;59.280;17.806;2022-09-03T04:38:59;1.52;;;0.90;;
35667;SDS011;22158;59.280;17.806;2022-09-03T04:41:26;1.75;;;0.82;;
35667;SDS011;22158;59.280;17.806;2022-09-03T04:43:54;1.08;;;0.80;;
35667;SDS011;22158;59.280;17.806;2022-09-03T04:46:22;1.52;;;1.10;;
35667;SDS011;22158;59.280;17.806;2022-09-03T04:48:50;2.42;;;0.90;;
35667;SDS011;22158;59.280;17.806;2022-09-03T04:51:21;3.80;;;0.93;;
35667;SDS011;22158;59.280;17.806;2022-09-03T04:53:53;1.83;;;1.00;;
35667;SDS011;22158;59.280;17.806;2022-09-03T04:56:22;2.67;;;0.90;;
35667;SDS011;22158;59.280;17.806;2022-09-03T04:58:53;0.93;;;0.80;;
35667;SDS011;22158;59.280;17.806;2022-09-03T05:01:21;2.28;;;0.85;;
35667;SDS011;22158;59.280;17.806;2022-09-03T05:03:48;3.65;;;1.00;;
35667;SDS011;22158;59.280;17.806;2022-09-03T05:06:18;1.00;;;0.85;;
35667;SDS011;22158;59.280;17.806;2022-09-03T05:08:47;3.42;;;1.23;;
35667;SDS011;22158;59.280;17.806;2022-09-03T05:11:14;0.93;;;0.80;;
35667;SDS011;22158;59.280;17.806;2022-09-03T05:13:40;2.08;;;0.90;;
35667;SDS011;22158;59.280;17.806;2022-09-03T05:16:07;4.63;;;1.48;;
35667;SDS011;22158;59.280;17.806;2022-09-03T05:18:36;1.02;;;0.80;;
35667;SDS011;22158;59.280;17.806;2022-09-03T05:21:06;2.05;;;0.90;;
35667;SDS011;22158;59.280;17.806;2022-09-03T05:23:34;1.52;;;1.05;;
35667;SDS011;22158;59.280;17.806;2022-09-03T05:26:07;2.17;;;0.65;;
35667;SDS011;22158;59.280;17.806;2022-09-03T05:28:35;0.77;;;0.60;;
35667;SDS011;22158;59.280;17.806;2022-09-03T05:31:03;2.53;;;0.80;;
35667;SDS011;22158;59.280;17.806;2022-09-03T05:33:34;1.33;;;1.00;;
35667;SDS011;22158;59.280;17.806;2022-09-03T05:36:11;1.10;;;0.70;;
35667;SDS011;22158;59.280;17.806;2022-09-03T05:38:38;1.30;;;0.98;;
35667;SDS011;22158;59.280;17.806;2022-09-03T05:41:05;1.10;;;0.70;;
35667;SDS011;22158;59.280;17.806;2022-09-03T05:43:32;1.13;;;0.90;;
35667;SDS011;22158;59.280;17.806;2022-09-03T05:45:59;1.10;;;0.85;;
35667;SDS011;22158;59.280;17.806;2022-09-03T05:48:26;1.05;;;0.88;;
35667;SDS011;22158;59.280;17.806;2022-09-03T05:50:59;1.95;;;0.77;;
35667;SDS011;22158;59.280;17.806;2022-09-03T05:53:26;1.00;;;0.90;;
35667;SDS011;22158;59.280;17.806;2022-09-03T05:55:59;1.95;;;0.90;;
35667;SDS011;22158;59.280;17.806;2022-09-03T05:58:30;1.90;;;0.82;;
35667;SDS011;22158;59.280;17.806;2022-09-03T06:01:08;1.00;;;0.80;;
35667;SDS011;22158;59.280;17.806;2022-09-03T06:03:41;2.25;;;0.80;;
35667;SDS011;22158;59.280;17.806;2022-09-03T06:06:08;1.30;;;0.80;;
35667;SDS011;22158;59.280;17.806;2022-09-03T06:08:35;0.63;;;0.52;;
35667;SDS011;22158;59.280;17.806;2022-09-03T06:11:04;0.63;;;0.60;;
35667;SDS011;22158;59.280;17.806;2022-09-03T06:13:31;2.33;;;0.80;;
35667;SDS011;22158;59.280;17.806;2022-09-03T06:16:01;2.10;;;0.90;;
35667;SDS011;22158;59.280;17.806;2022-09-03T06:18:30;2.95;;;0.68;;
35667;SDS011;22158;59.280;17.806;2022-09-03T06:20:57;2.65;;;0.82;;
35667;SDS011;22158;59.280;17.806;2022-09-03T06:23:24;1.65;;;0.88;;
35667;SDS011;22158;59.280;17.806;2022-09-03T06:28:31;3.72;;;1.13;;
35667;SDS011;22158;59.280;17.806;2022-09-03T06:31:00;2.70;;;1.52;;
35667;SDS011;22158;59.280;17.806;2022-09-03T06:33:28;3.70;;;1.55;;
35667;SDS011;22158;59.280;17.806;2022-09-03T06:35:58;3.88;;;1.77;;
35667;SDS011;22158;59.280;17.806;2022-09-03T06:38:26;3.65;;;2.40;;
35667;SDS011;22158;59.280;17.806;2022-09-03T06:40:54;3.33;;;1.95;;
35667;SDS011;22158;59.280;17.806;2022-09-03T06:43:21;5.47;;;2.13;;
35667;SDS011;22158;59.280;17.806;2022-09-03T06:45:58;2.95;;;1.85;;
35667;SDS011;22158;59.280;17.806;2022-09-03T06:48:25;2.53;;;1.30;;
35667;SDS011;22158;59.280;17.806;2022-09-03T06:53:23;1.88;;;1.00;;
35667;SDS011;22158;59.280;17.806;2022-09-03T06:55:53;3.45;;;1.40;;
35667;SDS011;22158;59.280;17.806;2022-09-03T06:58:20;1.25;;;1.00;;
35667;SDS011;22158;59.280;17.806;2022-09-03T07:00:47;6.90;;;1.40;;
35667;SDS011;22158;59.280;17.806;2022-09-03T07:03:13;1.38;;;0.98;;
35667;SDS011;22158;59.280;17.806;2022-09-03T07:05:41;2.47;;;1.20;;
35667;SDS011;22158;59.280;17.806;2022-09-03T07:08:08;1.95;;;0.95;;
35667;SDS011;22158;59.280;17.806;2022-09-03T07:10:35;1.60;;;1.00;;
35667;SDS011;22158;59.280;17.806;2022-09-03T07:13:02;1.27;;;0.90;;
35667;SDS011;22158;59.280;17.806;2022-09-03T07:15:30;4.20;;;0.95;;
35667;SDS011;22158;59.280;17.806;2022-09-03T07:17:57;0.98;;;0.82;;
35667;SDS011;22158;59.280;17.806;2022-09-03T07:20:23;3.42;;;0.90;;
35667;SDS011;22158;59.280;17.806;2022-09-03T07:22:49;1.38;;;0.80;;
35667;SDS011;22158;59.280;17.806;2022-09-03T07:25:14;2.13;;;1.20;;
35667;SDS011;22158;59.280;17.806;2022-09-03T07:27:40;2.13;;;1.10;;
35667;SDS011;22158;59.280;17.806;2022-09-03T07:30:06;1.30;;;0.85;;
35667;SDS011;22158;59.280;17.806;2022-09-03T07:32:34;0.98;;;0.70;;
35667;SDS011;22158;59.280;17.806;2022-09-03T07:35:01;1.60;;;0.98;;
35667;SDS011;22158;59.280;17.806;2022-09-03T07:37:27;1.05;;;0.70;;
35667;SDS011;22158;59.280;17.806;2022-09-03T07:39:52;1.13;;;0.70;;
35667;SDS011;22158;59.280;17.806;2022-09-03T07:42:18;1.60;;;1.15;;
35667;SDS011;22158;59.280;17.806;2022-09-03T07:44:45;3.65;;;0.80;;
35667;SDS011;22158;59.280;17.806;2022-09-03T07:47:10;1.35;;;0.80;;
35667;SDS011;22158;59.280;17.806;2022-09-03T07:49:37;1.73;;;0.90;;
35667;SDS011;22158;59.280;17.806;2022-09-03T07:52:03;2.53;;;0.80;;
35667;SDS011;22158;59.280;17.806;2022-09-03T07:54:28;2.10;;;0.60;;
35667;SDS011;22158;59.280;17.806;2022-09-03T07:56:55;0.60;;;0.60;;
35667;SDS011;22158;59.280;17.806;2022-09-03T07:59:21;1.33;;;0.70;;
35667;SDS011;22158;59.280;17.806;2022-09-03T08:01:47;2.38;;;0.77;;
35667;SDS011;22158;59.280;17.806;2022-09-03T08:04:14;0.95;;;0.65;;
35667;SDS011;22158;59.280;17.806;2022-09-03T08:06:40;1.35;;;0.73;;
35667;SDS011;22158;59.280;17.806;2022-09-03T08:09:07;1.85;;;0.80;;
35667;SDS011;22158;59.280;17.806;2022-09-03T08:11:36;4.85;;;0.50;;
35667;SDS011;22158;59.280;17.806;2022-09-03T08:14:03;0.80;;;0.57;;
35667;SDS011;22158;59.280;17.806;2022-09-03T08:16:32;4.97;;;0.80;;
35667;SDS011;22158;59.280;17.806;2022-09-03T08:21:28;1.00;;;0.45;;
35667;SDS011;22158;59.280;17.806;2022-09-03T08:23:54;0.52;;;0.50;;
35667;SDS011;22158;59.280;17.806;2022-09-03T08:26:28;2.25;;;0.80;;
35667;SDS011;22158;59.280;17.806;2022-09-03T08:28:55;0.98;;;0.50;;
35667;SDS011;22158;59.280;17.806;2022-09-03T08:31:21;0.95;;;0.50;;
35667;SDS011;22158;59.280;17.806;2022-09-03T08:33:50;1.58;;;0.60;;
35667;SDS011;22158;59.280;17.806;2022-09-03T08:36:18;3.78;;;0.47;;
35667;SDS011;22158;59.280;17.806;2022-09-03T08:38:49;0.50;;;0.43;;
35667;SDS011;22158;59.280;17.806;2022-09-03T08:42:20;0.70;;;0.70;;
35667;SDS011;22158;59.280;17.806;2022-09-03T08:55:19;1.70;;;0.50;;
35667;SDS011;22158;59.280;17.806;2022-09-03T08:57:50;4.18;;;0.38;;
35667;SDS011;22158;59.280;17.806;2022-09-03T09:00:46;1.27;;;0.70;;
35667;SDS011;22158;59.280;17.806;2022-09-03T09:09:02;1.38;;;0.70;;
35667;SDS011;22158;59.280;17.806;2022-09-03T09:19:38;2.08;;;0.80;;
35667;SDS011;22158;59.280;17.806;2022-09-03T09:22:32;0.90;;;0.70;;
35667;SDS011;22158;59.280;17.806;2022-09-03T09:25:12;1.55;;;0.63;;
35667;SDS011;22158;59.280;17.806;2022-09-03T09:30:24;1.38;;;1.00;;
35667;SDS011;22158;59.280;17.806;2022-09-03T09:32:52;1.55;;;0.77;;
35667;SDS011;22158;59.280;17.806;2022-09-03T09:35:19;1.85;;;1.10;;
35667;SDS011;22158;59.280;17.806;2022-09-03T09:37:45;1.90;;;1.00;;
35667;SDS011;22158;59.280;17.806;2022-09-03T09:40:22;0.85;;;0.70;;
35667;SDS011;22158;59.280;17.806;2022-09-03T09:45:30;4.38;;;0.70;;
35667;SDS011;22158;59.280;17.806;2022-09-03T09:47:59;1.77;;;0.60;;
35667;SDS011;22158;59.280;17.806;2022-09-03T09:50:27;1.17;;;0.55;;
35667;SDS011;22158;59.280;17.806;2022-09-03T09:53:02;1.13;;;0.63;;
35667;SDS011;22158;59.280;17.806;2022-09-03T09:55:47;0.70;;;0.60;;
35667;SDS011;22158;59.280;17.806;2022-09-03T09:58:18;1.75;;;0.70;;
35667;SDS011;22158;59.280;17.806;2022-09-03T10:01:45;1.90;;;0.80;;
35667;SDS011;22158;59.280;17.806;2022-09-03T10:03:55;1.70;;;0.50;;
35667;SDS011;22158;59.280;17.806;2022-09-03T10:06:23;1.08;;;0.85;;
35667;SDS011;22158;59.280;17.806;2022-09-03T10:09:18;1.55;;;0.50;;
35667;SDS011;22158;59.280;17.806;2022-09-03T10:11:49;1.55;;;0.68;;
35667;SDS011;22158;59.280;17.806;2022-09-03T10:14:29;1.08;;;0.75;;
35667;SDS011;22158;59.280;17.806;2022-09-03T10:17:41;1.13;;;0.98;;
35667;SDS011;22158;59.280;17.806;2022-09-03T10:20:14;3.03;;;1.08;;
35667;SDS011;22158;59.280;17.806;2022-09-03T10:22:55;1.10;;;0.60;;
35667;SDS011;22158;59.280;17.806;2022-09-03T10:28:16;1.20;;;0.85;;
35667;SDS011;22158;59.280;17.806;2022-09-03T10:33:43;1.42;;;0.70;;
35667;SDS011;22158;59.280;17.806;2022-09-03T10:41:46;1.42;;;0.70;;
35667;SDS011;22158;59.280;17.806;2022-09-03T10:44:29;0.68;;;0.50;;
35667;SDS011;22158;59.280;17.806;2022-09-03T10:47:23;2.45;;;0.73;;
35667;SDS011;22158;59.280;17.806;2022-09-03T11:01:13;1.98;;;0.93;;
35667;SDS011;22158;59.280;17.806;2022-09-03T11:06:28;1.13;;;0.60;;
35667;SDS011;22158;59.280;17.806;2022-09-03T11:09:10;1.15;;;0.80;;
35667;SDS011;22158;59.280;17.806;2022-09-03T11:11:53;1.25;;;0.63;;
35667;SDS011;22158;59.280;17.806;2022-09-03T11:14:27;1.02;;;0.70;;
35667;SDS011;22158;59.280;17.806;2022-09-03T11:17:05;1.20;;;0.80;;
35667;SDS011;22158;59.280;17.806;2022-09-03T11:19:47;1.20;;;1.00;;
35667;SDS011;22158;59.280;17.806;2022-09-03T11:22:20;2.30;;;0.80;;
35667;SDS011;22158;59.280;17.806;2022-09-03T11:24:49;1.90;;;0.85;;
35667;SDS011;22158;59.280;17.806;2022-09-03T11:27:35;2.38;;;0.80;;
35667;SDS011;22158;59.280;17.806;2022-09-03T11:30:56;1.42;;;0.82;;
35667;SDS011;22158;59.280;17.806;2022-09-03T11:33:18;0.70;;;0.60;;
35667;SDS011;22158;59.280;17.806;2022-09-03T11:35:48;2.15;;;0.90;;
35667;SDS011;22158;59.280;17.806;2022-09-03T11:38:26;2.67;;;0.60;;
35667;SDS011;22158;59.280;17.806;2022-09-03T11:43:31;2.20;;;0.50;;
35667;SDS011;22158;59.280;17.806;2022-09-03T11:46:05;2.20;;;0.47;;
35667;SDS011;22158;59.280;17.806;2022-09-03T11:48:43;0.73;;;0.45;;
35667;SDS011;22158;59.280;17.806;2022-09-03T11:54:01;2.20;;;0.80;;
35667;SDS011;22158;59.280;17.806;2022-09-03T11:56:48;1.35;;;0.90;;
35667;SDS011;22158;59.280;17.806;2022-09-03T11:59:23;1.08;;;0.60;;
35667;SDS011;22158;59.280;17.806;2022-09-03T12:01:57;1.23;;;0.60;;
35667;SDS011;22158;59.280;17.806;2022-09-03T12:05:13;1.25;;;0.60;;
35667;SDS011;22158;59.280;17.806;2022-09-03T12:07:33;1.35;;;0.60;;
35667;SDS011;22158;59.280;17.806;2022-09-03T12:23:28;1.08;;;0.50;;
35667;SDS011;22158;59.280;17.806;2022-09-03T12:26:10;0.50;;;0.50;;
35667;SDS011;22158;59.280;17.806;2022-09-03T12:28:39;1.35;;;0.88;;
35667;SDS011;22158;59.280;17.806;2022-09-03T12:31:14;1.90;;;0.68;;
35667;SDS011;22158;59.280;17.806;2022-09-03T12:33:49;1.58;;;0.80;;
35667;SDS011;22158;59.280;17.806;2022-09-03T12:36:21;0.85;;;0.60;;
35667;SDS011;22158;59.280;17.806;2022-09-03T12:38:48;0.90;;;0.70;;
35667;SDS011;22158;59.280;17.806;2022-09-03T12:41:25;1.05;;;0.77;;
35667;SDS011;22158;59.280;17.806;2022-09-03T12:43:54;1.60;;;0.60;;
35667;SDS011;22158;59.280;17.806;2022-09-03T12:46:22;1.77;;;0.75;;
35667;SDS011;22158;59.280;17.806;2022-09-03T12:48:56;1.35;;;0.68;;
35667;SDS011;22158;59.280;17.806;2022-09-03T12:51:23;1.58;;;0.70;;
35667;SDS011;22158;59.280;17.806;2022-09-03T12:53:49;1.83;;;0.50;;
35667;SDS011;22158;59.280;17.806;2022-09-03T12:56:16;1.00;;;0.60;;
35667;SDS011;22158;59.280;17.806;2022-09-03T12:59:03;1.52;;;0.73;;
35667;SDS011;22158;59.280;17.806;2022-09-03T13:01:33;1.27;;;0.70;;
35667;SDS011;22158;59.280;17.806;2022-09-03T13:04:24;0.67;;;0.67;;
35667;SDS011;22158;59.280;17.806;2022-09-03T13:07:00;1.65;;;0.68;;
35667;SDS011;22158;59.280;17.806;2022-09-03T13:09:35;1.20;;;0.70;;
35667;SDS011;22158;59.280;17.806;2022-09-03T13:12:03;2.35;;;1.10;;
35667;SDS011;22158;59.280;17.806;2022-09-03T13:14:51;1.55;;;0.55;;
35667;SDS011;22158;59.280;17.806;2022-09-03T13:25:41;1.10;;;0.60;;
35667;SDS011;22158;59.280;17.806;2022-09-03T13:34:01;0.40;;;0.40;;
35667;SDS011;22158;59.280;17.806;2022-09-03T13:36:53;1.83;;;0.82;;
35667;SDS011;22158;59.280;17.806;2022-09-03T13:39:37;1.52;;;0.57;;
35667;SDS011;22158;59.280;17.806;2022-09-03T13:42:19;1.23;;;0.57;;
35667;SDS011;22158;59.280;17.806;2022-09-03T13:53:07;2.67;;;0.60;;
35667;SDS011;22158;59.280;17.806;2022-09-03T13:55:47;0.88;;;0.60;;
35667;SDS011;22158;59.280;17.806;2022-09-03T13:58:45;1.25;;;0.52;;
35667;SDS011;22158;59.280;17.806;2022-09-03T14:04:10;2.95;;;0.75;;
35667;SDS011;22158;59.280;17.806;2022-09-03T14:12:54;1.00;;;0.52;;
35667;SDS011;22158;59.280;17.806;2022-09-03T14:15:47;1.67;;;0.70;;
35667;SDS011;22158;59.280;17.806;2022-09-03T14:18:36;2.70;;;0.85;;
35667;SDS011;22158;59.280;17.806;2022-09-03T14:21:16;7.97;;;0.65;;
35667;SDS011;22158;59.280;17.806;2022-09-03T14:27:20;1.55;;;0.52;;
35667;SDS011;22158;59.280;17.806;2022-09-03T14:29:37;0.65;;;0.43;;
35667;SDS011;22158;59.280;17.806;2022-09-03T14:35:08;6.47;;;1.98;;
35667;SDS011;22158;59.280;17.806;2022-09-03T14:51:25;2.85;;;0.60;;
35667;SDS011;22158;59.280;17.806;2022-09-03T15:05:03;0.73;;;0.60;;
35667;SDS011;22158;59.280;17.806;2022-09-03T15:07:45;1.27;;;0.60;;
35667;SDS011;22158;59.280;17.806;2022-09-03T15:13:08;2.42;;;0.85;;
35667;SDS011;22158;59.280;17.806;2022-09-03T15:37:07;2.92;;;0.88;;
35667;SDS011;22158;59.280;17.806;2022-09-03T15:39:43;0.82;;;0.73;;
35667;SDS011;22158;59.280;17.806;2022-09-03T15:42:16;2.15;;;0.80;;
35667;SDS011;22158;59.280;17.806;2022-09-03T15:44:53;3.15;;;0.80;;
35667;SDS011;22158;59.280;17.806;2022-09-03T15:47:33;3.08;;;0.75;;
35667;SDS011;22158;59.280;17.806;2022-09-03T15:50:14;0.68;;;0.60;;
35667;SDS011;22158;59.280;17.806;2022-09-03T15:55:38;2.88;;;0.70;;
35667;SDS011;22158;59.280;17.806;2022-09-03T16:05:47;0.68;;;0.50;;
35667;SDS011;22158;59.280;17.806;2022-09-03T16:16:27;5.00;;;2.75;;
35667;SDS011;22158;59.280;17.806;2022-09-03T16:21:37;3.83;;;1.50;;
35667;SDS011;22158;59.280;17.806;2022-09-03T16:26:55;3.45;;;1.02;;
35667;SDS011;22158;59.280;17.806;2022-09-03T16:29:28;1.67;;;0.93;;
35667;SDS011;22158;59.280;17.806;2022-09-03T16:43:00;1.98;;;1.23;;
35667;SDS011;22158;59.280;17.806;2022-09-03T16:45:43;1.98;;;1.38;;
35667;SDS011;22158;59.280;17.806;2022-09-03T16:48:37;1.63;;;1.00;;
35667;SDS011;22158;59.280;17.806;2022-09-03T17:00:10;1.33;;;1.00;;
35667;SDS011;22158;59.280;17.806;2022-09-03T17:03:13;1.70;;;1.15;;
35667;SDS011;22158;59.280;17.806;2022-09-03T17:17:00;3.85;;;1.92;;
35667;SDS011;22158;59.280;17.806;2022-09-03T17:24:56;4.13;;;3.00;;
35667;SDS011;22158;59.280;17.806;2022-09-03T17:48:57;6.13;;;2.65;;
35667;SDS011;22158;59.280;17.806;2022-09-03T17:51:46;6.35;;;3.30;;
35667;SDS011;22158;59.280;17.806;2022-09-03T17:54:26;19.05;;;7.85;;
35667;SDS011;22158;59.280;17.806;2022-09-03T18:02:03;12.32;;;5.55;;
35667;SDS011;22158;59.280;17.806;2022-09-03T18:07:09;9.15;;;4.57;;
35667;SDS011;22158;59.280;17.806;2022-09-03T18:10:03;5.75;;;3.38;;
35667;SDS011;22158;59.280;17.806;2022-09-03T18:12:48;5.00;;;2.97;;
35667;SDS011;22158;59.280;17.806;2022-09-03T18:15:25;2.60;;;1.52;;
35667;SDS011;22158;59.280;17.806;2022-09-03T18:20:30;2.08;;;1.10;;
35667;SDS011;22158;59.280;17.806;2022-09-03T18:26:14;2.15;;;1.20;;
35667;SDS011;22158;59.280;17.806;2022-09-03T18:29:11;2.70;;;1.20;;
35667;SDS011;22158;59.280;17.806;2022-09-03T18:31:59;1.38;;;1.10;;
35667;SDS011;22158;59.280;17.806;2022-09-03T18:34:44;3.60;;;1.10;;
35667;SDS011;22158;59.280;17.806;2022-09-03T18:37:29;5.10;;;1.20;;
35667;SDS011;22158;59.280;17.806;2022-09-03T18:40:18;3.00;;;1.10;;
35667;SDS011;22158;59.280;17.806;2022-09-03T18:49:08;3.03;;;2.35;;
35667;SDS011;22158;59.280;17.806;2022-09-03T18:52:14;2.47;;;1.23;;
35667;SDS011;22158;59.280;17.806;2022-09-03T18:55:17;3.80;;;1.20;;
35667;SDS011;22158;59.280;17.806;2022-09-03T18:58:30;2.10;;;1.17;;
35667;SDS011;22158;59.280;17.806;2022-09-03T19:01:36;2.13;;;1.30;;
35667;SDS011;22158;59.280;17.806;2022-09-03T19:13:43;9.60;;;5.43;;
35667;SDS011;22158;59.280;17.806;2022-09-03T19:22:51;3.88;;;2.50;;
35667;SDS011;22158;59.280;17.806;2022-09-03T19:25:35;5.47;;;2.13;;
35667;SDS011;22158;59.280;17.806;2022-09-03T19:28:23;3.92;;;1.88;;
35667;SDS011;22158;59.280;17.806;2022-09-03T19:37:03;2.88;;;1.52;;
35667;SDS011;22158;59.280;17.806;2022-09-03T19:46:29;3.88;;;1.40;;
35667;SDS011;22158;59.280;17.806;2022-09-03T19:52:33;2.20;;;1.13;;
35667;SDS011;22158;59.280;17.806;2022-09-03T19:55:20;2.97;;;1.58;;
35667;SDS011;22158;59.280;17.806;2022-09-03T19:58:09;1.80;;;1.00;;
35667;SDS011;22158;59.280;17.806;2022-09-03T20:00:57;2.45;;;1.30;;
35667;SDS011;22158;59.280;17.806;2022-09-03T20:03:41;9.45;;;1.98;;
35667;SDS011;22158;59.280;17.806;2022-09-03T20:06:26;1.73;;;1.35;;
35667;SDS011;22158;59.280;17.806;2022-09-03T20:09:12;2.42;;;1.00;;
35667;SDS011;22158;59.280;17.806;2022-09-03T20:12:02;2.90;;;1.20;;
35667;SDS011;22158;59.280;17.806;2022-09-03T20:14:32;2.55;;;1.48;;
35667;SDS011;22158;59.280;17.806;2022-09-03T20:52:14;1.30;;;1.08;;
35667;SDS011;22158;59.280;17.806;2022-09-03T21:01:06;1.77;;;0.95;;
35667;SDS011;22158;59.280;17.806;2022-09-03T21:03:43;3.15;;;1.27;;
35667;SDS011;22158;59.280;17.806;2022-09-03T21:06:32;2.55;;;0.80;;
35667;SDS011;22158;59.280;17.806;2022-09-03T21:15:02;5.70;;;1.25;;
35667;SDS011;22158;59.280;17.806;2022-09-03T21:20:12;2.92;;;1.67;;
35667;SDS011;22158;59.280;17.806;2022-09-03T21:23:05;1.33;;;0.93;;
35667;SDS011;22158;59.280;17.806;2022-09-03T21:25:51;2.10;;;1.10;;
35667;SDS011;22158;59.280;17.806;2022-09-03T21:30:49;1.95;;;1.10;;
35667;SDS011;22158;59.280;17.806;2022-09-03T21:33:27;1.35;;;1.00;;
35667;SDS011;22158;59.280;17.806;2022-09-03T21:38:33;4.70;;;1.27;;
35667;SDS011;22158;59.280;17.806;2022-09-03T21:46:32;0.88;;;0.75;;
35667;SDS011;22158;59.280;17.806;2022-09-03T21:49:08;1.70;;;1.10;;
35667;SDS011;22158;59.280;17.806;2022-09-03T21:54:28;1.92;;;0.98;;
35667;SDS011;22158;59.280;17.806;2022-09-03T22:02:22;3.33;;;1.98;;
35667;SDS011;22158;59.280;17.806;2022-09-03T22:04:56;4.47;;;1.10;;
35667;SDS011;22158;59.280;17.806;2022-09-03T22:15:39;5.75;;;2.42;;
35667;SDS011;22158;59.280;17.806;2022-09-03T22:18:26;2.42;;;1.00;;
35667;SDS011;22158;59.280;17.806;2022-09-03T22:23:46;5.00;;;2.50;;